• Join FlightAware (Why Join?)
  • Login
  • US Flag 
03:16PM EDT


 

Airport Tracker/Info


-or-


 

Live Flight TrackerFlight Track Log ✈ FLG3757 ✈ 10-Jan-2014 ✈ KBGM - KDTW

Flight Track Log - Related Links

Times and Time Zones

All times are in EST time to prevent confusion due to time zone crossing. See the FLG3757 flight status page for this flight to view local times or setup timezone preferences in your user account.

Time Position Orientation Groundspeed Altitude Reporting Facility
EST Latitude Longitude Course Direction KTS MPH feet Rate Location/Type
06:46AM 42.1758 -75.9700 289° West 145 167 3,400  Level New York Center
06:47AM 42.1294 -75.9886 197° South 156 180 5,400 2,100 Climbing New York Center
06:48AM 42.1506 -76.0714 289° West 154 177 7,700 2,520 Climbing New York Center
06:49AM 42.1781 -76.1575 293° West 199 229 10,500 1,800 Climbing New York Center
06:51AM 42.2392 -76.3475 294° West 311 358 13,000 1,440 Climbing Cleveland Center
06:52AM 42.2296 -76.6983 289° West  Level Estimated
06:52AM 42.2728 -76.4567 293° West 326 375 14,900  Level Cleveland Center
06:53AM 42.3083 -76.5700 293° West 327 376 16,900 1,620 Climbing Cleveland Center
06:54AM 42.3442 -76.6836 293° West 328 377 18,300 1,140 Climbing Cleveland Center
06:55AM 42.3806 -76.8025 293° West 339 390 19,300 960 Climbing Cleveland Center
06:56AM 42.4192 -76.9289 293° West 358 412 20,300 780 Climbing Cleveland Center
06:57AM 42.4594 -77.0597 293° West 372 428 21,000 1,680 Climbing Cleveland Center
06:58AM 42.5061 -77.2131 292° West 370 426 23,800 1,980 Climbing Cleveland Center
06:59AM 42.5417 -77.3319 292° West 347 399 25,100 960 Climbing Cleveland Center
07:00AM 42.5781 -77.4519 292° West 345 397 25,800 420 Climbing Cleveland Center
07:01AM 42.6181 -77.5844 292° West 356 410 26,000 60 Climbing Cleveland Center
07:02AM 42.6550 -77.7097 292° West 358 412 26,000  Level Cleveland Center
07:03AM 42.6947 -77.8419 292° West 363 418 26,000  Level Cleveland Center
07:04AM 42.7344 -77.9781 292° West 384 442 26,000  Level Cleveland Center
07:05AM 42.7739 -78.1136 292° West 386 444 26,000  Level Cleveland Center
07:06AM 42.8139 -78.2511 292° West 391 450 26,000  Level Cleveland Center
07:07AM 42.8533 -78.3878 292° West 387 445 26,000  Level Cleveland Center
07:08AM 42.8925 -78.5217 292° West 381 438 26,000  Level Cleveland Center
07:09AM 42.9242 -78.6608 287° West 386 444 26,000  Level Cleveland Center
07:10AM 42.9064 -78.8033 260° West 382 440 26,000  Level Cleveland Center
07:11AM 42.8847 -78.9464 258° West 385 443 26,000  Level Cleveland Center
07:13AM 42.8639 -79.0903 259° West 388 447 26,000  Level Cleveland Center
07:14AM 42.8392 -79.2619 259° West 387 445 26,000  Level Cleveland Center
07:15AM 42.8169 -79.4058 258° West 389 448 26,000  Level Cleveland Center
07:16AM 42.7958 -79.5486 259° West 386 444 26,000  Level Cleveland Center
07:17AM 42.7736 -79.6917 258° West 388 447 26,000  Level Cleveland Center
07:18AM 42.7522 -79.8339 258° West 386 444 26,000  Level Cleveland Center
07:19AM 42.7450 -79.9883 266° West 385 443 26,000  Level Cleveland Center
07:20AM 42.7389 -80.1367 267° West 388 447 26,000  Level Cleveland Center
07:21AM 42.7322 -80.2847 267° West 390 449 26,000  Level Cleveland Center
07:22AM 42.7256 -80.4317 267° West 387 445 26,000  Level Cleveland Center
07:23AM 42.7194 -80.5786 267° West 387 445 26,000 -120 Level Cleveland Center
07:24AM 42.7133 -80.7253 267° West 387 445 25,800 -600 Descending Cleveland Center
07:25AM 42.7067 -80.8692 266° West 379 436 24,800 -1,020 Descending Cleveland Center
07:26AM 42.6933 -81.0061 262° West 365 420 23,800 -1,080 Descending Cleveland Center
07:27AM 42.6769 -81.1386 260° West 357 411 22,700 -900 Descending Cleveland Center
07:28AM 42.6628 -81.2733 262° West 357 411 22,000 -360 Descending Cleveland Center
07:29AM 42.6469 -81.4047 261° West 352 405 22,000  Level Cleveland Center
07:30AM 42.6319 -81.5300 261° West 335 386 22,000 -300 Level Cleveland Center
07:31AM 42.6189 -81.6436 261° West 307 353 21,400 -1,020 Descending Cleveland Center
07:32AM 42.6025 -81.7794 261° West 311 358 20,000 -1,320 Descending Cleveland Center
07:33AM 42.5892 -81.8936 261° West 306 352 18,700 -1,080 Descending Cleveland Center
07:34AM 42.5750 -82.0025 260° West 293 337 17,900 -1,080 Descending Cleveland Center
07:35AM 42.5619 -82.1106 261° West 289 333 16,600 -1,320 Descending Cleveland Center
07:36AM 42.5486 -82.2169 260° West 286 329 15,300 -1,380 Descending Cleveland Center
07:36AM 42.5456 -82.2428 261° West 284 327 15,000 -1,200 Descending Cleveland Center
07:37AM 42.5406 -82.2847 261° West 281 323 14,600 -1,080 Descending Cleveland Center
07:37AM 42.5364 -82.3208 261° West 278 320 14,100 -1,200 Descending Cleveland Center
07:38AM 42.5272 -82.3878 259° West 274 315 13,400 -1,080 Descending Cleveland Center
07:38AM 42.5228 -82.4222 260° West 273 314 13,000 -1,140 Descending Cleveland Center
07:39AM 42.5161 -82.4881 262° West 268 308 12,300 -1,020 Descending Cleveland Center
07:39AM 42.5100 -82.5228 257° West 269 310 12,000 -480 Descending Cleveland Center
07:40AM 42.4975 -82.5764 252° West 264 304 11,900 -600 Descending Cleveland Center
07:40AM 42.4828 -82.6150 243° Southwest 263 303 11,400 -1,080 Descending Cleveland Center
07:41AM 42.4611 -82.6733 243° Southwest 251 289 10,700 -1,020 Descending Cleveland Center
07:41AM 42.4481 -82.6978 234° Southwest 257 296 10,400 -1,020 Descending Cleveland Center
07:42AM 42.4228 -82.7419 232° Southwest 218 251 9,700 -1,020 Descending Cleveland Center
07:42AM 42.4100 -82.7633 231° Southwest 242 278 9,400 -1,020 Descending Cleveland Center
07:43AM 42.3867 -82.8078 235° Southwest 198 228 8,600 -1,200 Descending Cleveland Center
07:43AM 42.3742 -82.8342 237° Southwest 215 247 8,200 -1,020 Descending Cleveland Center
07:44AM 42.3550 -82.8683 233° Southwest 200 230 7,600 -1,020 Descending Cleveland Center
07:44AM 42.3408 -82.8942 233° Southwest 205 236 7,200 -600 Descending Cleveland Center
07:45AM 42.3289 -82.9356 249° West 198 228 7,000 -240 Descending Cleveland Center
07:45AM 42.3392 -82.9622 298° West 211 243 7,000  Level Cleveland Center
07:46AM 42.3594 -83.0047 303° West 218 251 7,000  Level Cleveland Center
07:46AM 42.3719 -83.0297 304° West 213 245 7,000  Level Cleveland Center
07:47AM 42.3978 -83.0522 327° Northwest 240 276 7,000 -240 Level Cleveland Center
07:47AM 42.4294 -83.0333 24° Northeast 250 288 6,800 -720 Descending Cleveland Center
07:48AM 42.4633 -83.0442 347° North 238 274 6,300 -780 Descending Cleveland Center
07:48AM 42.4789 -83.0692 310° West 226 260 6,000 -300 Descending Cleveland Center
07:49AM 42.4922 -83.1047 297° West 179 206 6,000  Level Cleveland Center
07:49AM 42.4853 -83.1306 250° West 194 223 6,000  Level Cleveland Center
07:50AM 42.4656 -83.1519 219° Southwest 152 175 6,000  Level Cleveland Center
07:50AM 42.4500 -83.1644 211° Southwest 170 196 6,000 -420 Level Cleveland Center
07:51AM 42.4278 -83.1808 209° Southwest 157 181 5,600 -840 Descending Cleveland Center
07:51AM 42.4094 -83.1917 204° Southwest 160 184 5,200 -900 Descending Cleveland Center
07:52AM 42.3900 -83.2094 214° Southwest 155 178 4,700 -900 Descending Cleveland Center
07:52AM 42.3728 -83.2200 204° Southwest 156 180 4,300 -900 Descending Cleveland Center
07:53AM 42.3522 -83.2381 213° Southwest 153 176 3,800 -900 Descending Cleveland Center
07:53AM 42.3342 -83.2503 207° Southwest 156 180 3,400 -900 Descending Cleveland Center
07:54AM 42.3125 -83.2636 204° Southwest 154 177 2,900 -960 Descending Cleveland Center
07:55AM 42.2769 -83.2925 211° Southwest 129 148 2,100 -840 Descending Cleveland Center
07:56AM 42.2458 -83.3136 207° Southwest 124 143 1,300 -840 Descending Cleveland Center